Time;durP1;ratioP1;P1;durP2;ratioP2;P2;SDS_P1;SDS_P2;PMS_P1;PMS_P2;Temp;Humidity;BMP_temperature;BMP_pressure;BME280_temperature;BME280_humidity;BME280_pressure;Samples;Min_cycle;Max_cycle;Signal;HPM_P1;HPM_P2
2022/07/07 00:00:37;;;;;;;3.21;2.16;;;;;;;;;;384035;140;866323;-65
2022/07/07 00:01:39;;;;;;;3.59;2.04;;;;;;;;;;384019;140;866418;-65
2022/07/07 00:02:40;;;;;;;2.39;1.91;;;;;;;;;;383860;140;857414;-65
2022/07/07 00:03:42;;;;;;;3.11;2.04;;;;;;;;;;384053;140;865826;-65
2022/07/07 00:04:44;;;;;;;3.45;1.89;;;;;;;;;;384011;140;865092;-65
2022/07/07 00:05:45;;;;;;;2.52;2.25;;;;;;;;;;384056;140;865190;-65
2022/07/07 00:06:47;;;;;;;2.74;2.24;;;;;;;;;;384102;140;857591;-65
2022/07/07 00:07:49;;;;;;;3.51;2.44;;;;;;;;;;384073;140;859087;-65
2022/07/07 00:08:54;;;;;;;3.10;2.10;;;;;;;;;;383799;140;864897;-65
2022/07/07 00:09:54;;;;;;;5.42;2.37;;;;;;;;;;383849;140;864877;-66
2022/07/07 00:10:56;;;;;;;2.67;1.97;;;;;;;;;;384102;140;859317;-66
2022/07/07 00:11:58;;;;;;;3.34;1.96;;;;;;;;;;383851;140;857836;-65
2022/07/07 00:12:59;;;;;;;4.20;2.34;;;;;;;;;;384038;140;864924;-66
2022/07/07 00:14:01;;;;;;;3.99;2.18;;;;;;;;;;384018;140;866796;-66
2022/07/07 00:15:04;;;;;;;4.84;2.16;;;;;;;;;;384011;140;865308;-66
2022/07/07 00:16:06;;;;;;;3.10;2.31;;;;;;;;;;383976;140;865094;-66
2022/07/07 00:17:07;;;;;;;4.09;1.95;;;;;;;;;;383977;140;864813;-66
2022/07/07 00:18:09;;;;;;;3.71;2.04;;;;;;;;;;384077;140;859892;-66
2022/07/07 00:19:10;;;;;;;3.99;2.65;;;;;;;;;;384033;140;866683;-66
2022/07/07 00:20:14;;;;;;;3.50;2.24;;;;;;;;;;380073;141;857503;-66
2022/07/07 00:21:15;;;;;;;2.83;2.05;;;;;;;;;;376914;142;858227;-66
2022/07/07 00:22:17;;;;;;;5.42;2.24;;;;;;;;;;376971;142;861294;-66
2022/07/07 00:23:19;;;;;;;5.26;2.35;;;;;;;;;;377024;142;857870;-66
2022/07/07 00:24:20;;;;;;;3.93;2.20;;;;;;;;;;376954;142;865213;-66
2022/07/07 00:25:22;;;;;;;5.06;2.43;;;;;;;;;;376964;142;862442;-66
2022/07/07 00:26:24;;;;;;;4.56;2.17;;;;;;;;;;377001;142;858657;-65
2022/07/07 00:27:26;;;;;;;3.88;2.01;;;;;;;;;;377100;142;857324;-66
2022/07/07 00:28:27;;;;;;;2.48;2.27;;;;;;;;;;376898;142;866808;-65
2022/07/07 00:29:29;;;;;;;4.47;2.31;;;;;;;;;;376957;142;864679;-66
2022/07/07 00:30:31;;;;;;;3.25;2.22;;;;;;;;;;377028;142;858775;-66
2022/07/07 00:31:33;;;;;;;3.19;2.30;;;;;;;;;;377049;142;857139;-66
2022/07/07 00:32:35;;;;;;;2.25;1.96;;;;;;;;;;376957;142;864623;-66
2022/07/07 00:33:36;;;;;;;5.29;2.12;;;;;;;;;;376948;142;867265;-66
2022/07/07 00:34:38;;;;;;;8.27;2.36;;;;;;;;;;377034;142;857412;-66
2022/07/07 00:35:40;;;;;;;3.74;2.31;;;;;;;;;;375945;142;864898;-66
2022/07/07 00:36:43;;;;;;;3.38;2.09;;;;;;;;;;375579;143;858877;-66
2022/07/07 00:37:44;;;;;;;3.51;2.27;;;;;;;;;;375536;143;859225;-66
2022/07/07 00:38:46;;;;;;;7.29;2.13;;;;;;;;;;369226;145;861297;-65
2022/07/07 00:39:48;;;;;;;2.87;2.22;;;;;;;;;;369235;143;867047;-66
2022/07/07 00:40:50;;;;;;;2.73;1.96;;;;;;;;;;375293;143;866627;-65
2022/07/07 00:41:52;;;;;;;5.40;2.82;;;;;;;;;;375511;143;867115;-65
2022/07/07 00:42:54;;;;;;;3.40;2.33;;;;;;;;;;375561;143;859836;-66
2022/07/07 00:43:56;;;;;;;4.03;2.75;;;;;;;;;;375563;143;859300;-65
2022/07/07 00:44:58;;;;;;;5.65;2.44;;;;;;;;;;375494;143;857376;-66
2022/07/07 00:46:01;;;;;;;4.54;2.36;;;;;;;;;;375504;143;865807;-66
2022/07/07 00:47:02;;;;;;;3.13;2.32;;;;;;;;;;369186;145;859875;-65
2022/07/07 00:48:04;;;;;;;4.15;2.20;;;;;;;;;;369128;143;857426;-66
2022/07/07 00:49:06;;;;;;;5.73;2.23;;;;;;;;;;375397;143;858937;-66
2022/07/07 00:50:09;;;;;;;2.59;2.37;;;;;;;;;;375580;143;857409;-66
2022/07/07 00:51:11;;;;;;;3.18;2.21;;;;;;;;;;375581;143;859606;-66
2022/07/07 00:52:12;;;;;;;4.39;2.23;;;;;;;;;;375594;143;857364;-66
2022/07/07 00:53:15;;;;;;;2.30;2.04;;;;;;;;;;375532;143;858522;-66
2022/07/07 00:54:17;;;;;;;2.67;2.34;;;;;;;;;;375516;143;861644;-66
2022/07/07 00:55:19;;;;;;;2.86;2.26;;;;;;;;;;375568;143;858399;-66
2022/07/07 00:56:21;;;;;;;2.93;2.28;;;;;;;;;;375293;143;865134;-66
2022/07/07 00:57:23;;;;;;;2.24;2.03;;;;;;;;;;375392;143;860351;-65
2022/07/07 00:58:24;;;;;;;3.31;1.91;;;;;;;;;;375335;143;857364;-65
2022/07/07 00:59:26;;;;;;;3.50;2.31;;;;;;;;;;375589;143;858207;-65
2022/07/07 01:00:28;;;;;;;2.79;2.11;;;;;;;;;;375584;143;860999;-65
2022/07/07 01:01:30;;;;;;;3.62;2.21;;;;;;;;;;375483;143;865087;-65
2022/07/07 01:02:32;;;;;;;8.04;2.22;;;;;;;;;;375561;143;859147;-65
2022/07/07 01:03:34;;;;;;;3.12;2.03;;;;;;;;;;375600;143;857839;-65
2022/07/07 01:04:36;;;;;;;4.71;2.56;;;;;;;;;;375541;143;859216;-65
2022/07/07 01:05:37;;;;;;;2.71;2.32;;;;;;;;;;375524;143;865001;-65
2022/07/07 01:06:39;;;;;;;2.83;2.01;;;;;;;;;;375326;143;864655;-65
2022/07/07 01:07:41;;;;;;;2.42;2.07;;;;;;;;;;375590;143;857779;-65
2022/07/07 01:08:43;;;;;;;4.71;2.34;;;;;;;;;;369242;145;858338;-65
2022/07/07 01:09:44;;;;;;;3.26;2.26;;;;;;;;;;369110;143;865080;-66
2022/07/07 01:10:46;;;;;;;3.18;2.65;;;;;;;;;;375550;143;864760;-66
2022/07/07 01:11:50;;;;;;;3.96;2.18;;;;;;;;;;375526;143;864908;-65
2022/07/07 01:12:51;;;;;;;3.84;2.36;;;;;;;;;;375421;143;860359;-66
2022/07/07 01:13:53;;;;;;;4.23;2.41;;;;;;;;;;375569;143;859580;-66
2022/07/07 01:14:55;;;;;;;3.46;2.33;;;;;;;;;;375297;143;866816;-66
2022/07/07 01:15:56;;;;;;;3.39;2.50;;;;;;;;;;375563;143;859304;-66
2022/07/07 01:16:58;;;;;;;3.60;2.15;;;;;;;;;;375525;143;865082;-66
2022/07/07 01:18:00;;;;;;;2.91;2.24;;;;;;;;;;375611;143;859170;-66
2022/07/07 01:19:01;;;;;;;2.40;2.20;;;;;;;;;;375594;143;858256;-66
2022/07/07 01:20:04;;;;;;;2.15;1.94;;;;;;;;;;375541;143;864559;-66
2022/07/07 01:21:06;;;;;;;6.46;2.54;;;;;;;;;;375569;143;858346;-66
2022/07/07 01:22:12;;;;;;;4.45;2.51;;;;;;;;;;375510;143;859241;-65
2022/07/07 01:23:14;;;;;;;2.38;2.12;;;;;;;;;;375311;143;860197;-65
2022/07/07 01:24:15;;;;;;;3.39;2.35;;;;;;;;;;375640;143;858686;-65
2022/07/07 01:25:17;;;;;;;4.79;2.37;;;;;;;;;;375580;143;858407;-66
2022/07/07 01:26:20;;;;;;;3.49;2.39;;;;;;;;;;375502;143;859148;-66
2022/07/07 01:27:21;;;;;;;4.19;2.60;;;;;;;;;;375568;143;857401;-65
2022/07/07 01:28:23;;;;;;;3.98;2.21;;;;;;;;;;375527;143;865044;-65
2022/07/07 01:29:25;;;;;;;4.47;2.45;;;;;;;;;;375985;143;864295;-66
2022/07/07 01:30:26;;;;;;;4.31;2.64;;;;;;;;;;376008;143;862556;-65
2022/07/07 01:31:28;;;;;;;3.71;2.46;;;;;;;;;;375997;143;864501;-66
2022/07/07 01:32:30;;;;;;;3.29;2.26;;;;;;;;;;376036;143;864361;-66
2022/07/07 01:33:31;;;;;;;5.08;2.19;;;;;;;;;;375939;143;864986;-65
2022/07/07 01:34:33;;;;;;;2.83;2.38;;;;;;;;;;376058;143;857106;-66
2022/07/07 01:35:35;;;;;;;2.30;2.10;;;;;;;;;;375300;143;865964;-66
2022/07/07 01:36:37;;;;;;;2.65;2.29;;;;;;;;;;373559;143;857393;-66
2022/07/07 01:37:39;;;;;;;4.73;2.53;;;;;;;;;;373498;143;858938;-66
2022/07/07 01:38:41;;;;;;;3.96;2.51;;;;;;;;;;373549;143;857988;-66
2022/07/07 01:39:42;;;;;;;2.44;2.24;;;;;;;;;;363773;147;864917;-66
2022/07/07 01:40:44;;;;;;;3.06;2.50;;;;;;;;;;378106;142;865431;-66
2022/07/07 01:41:46;;;;;;;3.49;2.37;;;;;;;;;;378342;142;858963;-65
2022/07/07 01:42:48;;;;;;;3.24;2.46;;;;;;;;;;379285;142;856066;-66
2022/07/07 01:43:50;;;;;;;3.02;2.35;;;;;;;;;;378288;142;864836;-66
2022/07/07 01:44:51;;;;;;;3.04;2.25;;;;;;;;;;378334;142;858211;-66
2022/07/07 01:45:53;;;;;;;2.47;2.26;;;;;;;;;;378312;142;858252;-65
2022/07/07 01:46:55;;;;;;;4.77;2.41;;;;;;;;;;378250;142;864868;-66
2022/07/07 01:47:56;;;;;;;2.94;2.61;;;;;;;;;;378235;142;864368;-66
2022/07/07 01:48:58;;;;;;;3.33;2.55;;;;;;;;;;378270;142;866751;-66
2022/07/07 01:50:00;;;;;;;3.39;2.52;;;;;;;;;;378321;142;857378;-66
2022/07/07 01:51:02;;;;;;;2.89;2.62;;;;;;;;;;378269;142;865261;-66
2022/07/07 01:52:04;;;;;;;3.22;2.64;;;;;;;;;;378340;142;859221;-66
2022/07/07 01:53:06;;;;;;;3.27;2.57;;;;;;;;;;378076;142;857429;-66
2022/07/07 01:54:08;;;;;;;4.57;2.66;;;;;;;;;;378183;142;858419;-66
2022/07/07 01:55:09;;;;;;;3.17;2.61;;;;;;;;;;378229;142;864998;-66
2022/07/07 01:56:13;;;;;;;4.04;2.62;;;;;;;;;;378151;142;866835;-66
2022/07/07 01:57:15;;;;;;;3.11;2.46;;;;;;;;;;378132;142;865447;-66
2022/07/07 01:58:16;;;;;;;3.20;2.46;;;;;;;;;;378149;142;864790;-67
2022/07/07 01:59:18;;;;;;;4.06;2.93;;;;;;;;;;378824;142;856924;-65
2022/07/07 02:00:20;;;;;;;5.16;2.90;;;;;;;;;;378284;142;858261;-65
2022/07/07 02:01:22;;;;;;;2.61;2.39;;;;;;;;;;378383;142;857368;-65
2022/07/07 02:02:24;;;;;;;3.29;2.77;;;;;;;;;;378313;142;857353;-65
2022/07/07 02:03:26;;;;;;;4.66;2.66;;;;;;;;;;378281;142;866762;-65
2022/07/07 02:04:28;;;;;;;2.75;2.53;;;;;;;;;;378245;142;865058;-65
2022/07/07 02:05:30;;;;;;;4.66;2.74;;;;;;;;;;378265;142;865129;-65
2022/07/07 02:06:32;;;;;;;3.95;2.55;;;;;;;;;;378341;142;857399;-65
2022/07/07 02:07:37;;;;;;;4.63;2.63;;;;;;;;;;378039;142;864933;-65
2022/07/07 02:08:39;;;;;;;3.42;2.69;;;;;;;;;;377936;142;860142;-65
2022/07/07 02:09:40;;;;;;;3.07;2.18;;;;;;;;;;378268;142;864909;-65
2022/07/07 02:12:03;;;;;;;3.27;2.52;;;;;;;;;;378171;142;858846;-65
2022/07/07 02:13:04;;;;;;;4.28;2.77;;;;;;;;;;378291;142;859557;-65
2022/07/07 02:14:06;;;;;;;3.79;2.74;;;;;;;;;;378100;142;857442;-65
2022/07/07 02:15:08;;;;;;;4.67;2.94;;;;;;;;;;378303;142;864920;-65
2022/07/07 02:16:11;;;;;;;4.21;2.49;;;;;;;;;;378263;142;865130;-65
2022/07/07 02:17:12;;;;;;;3.70;2.94;;;;;;;;;;378322;142;857633;-65
2022/07/07 02:18:14;;;;;;;3.21;2.41;;;;;;;;;;378158;142;857906;-65
2022/07/07 02:19:16;;;;;;;6.26;2.93;;;;;;;;;;378312;142;857895;-65
2022/07/07 02:20:19;;;;;;;4.31;2.61;;;;;;;;;;378154;142;865981;-65
2022/07/07 02:21:22;;;;;;;7.53;2.75;;;;;;;;;;378167;142;860784;-65
2022/07/07 02:22:23;;;;;;;3.84;2.59;;;;;;;;;;378070;142;857769;-65
2022/07/07 02:23:25;;;;;;;3.14;2.46;;;;;;;;;;378259;142;866727;-65
2022/07/07 02:24:27;;;;;;;3.47;2.44;;;;;;;;;;378254;142;864838;-65
2022/07/07 02:25:28;;;;;;;3.77;2.96;;;;;;;;;;378236;142;865819;-65
2022/07/07 02:26:33;;;;;;;3.04;2.82;;;;;;;;;;377822;140;865638;-65
2022/07/07 02:27:35;;;;;;;3.19;2.84;;;;;;;;;;378255;142;858123;-68
2022/07/07 02:28:37;;;;;;;4.61;2.61;;;;;;;;;;378359;142;859569;-65
2022/07/07 02:29:38;;;;;;;8.30;2.77;;;;;;;;;;378259;142;863248;-65
2022/07/07 02:30:40;;;;;;;3.97;3.27;;;;;;;;;;379289;142;856261;-65
2022/07/07 02:31:42;;;;;;;4.33;2.44;;;;;;;;;;378296;142;858941;-65
2022/07/07 02:32:43;;;;;;;3.53;2.79;;;;;;;;;;378290;142;867168;-65
2022/07/07 02:33:45;;;;;;;4.45;2.54;;;;;;;;;;378284;142;859876;-65
2022/07/07 02:34:47;;;;;;;3.72;2.60;;;;;;;;;;378304;142;858465;-65
2022/07/07 02:35:48;;;;;;;3.59;2.60;;;;;;;;;;378222;142;865348;-65
2022/07/07 02:36:50;;;;;;;3.67;2.51;;;;;;;;;;375140;142;863715;-66
2022/07/07 02:37:52;;;;;;;4.41;2.88;;;;;;;;;;365003;147;857663;-65
2022/07/07 02:38:54;;;;;;;6.21;2.89;;;;;;;;;;365557;147;865011;-65
2022/07/07 02:39:55;;;;;;;4.50;2.96;;;;;;;;;;374459;143;865039;-65
2022/07/07 02:40:57;;;;;;;6.72;2.92;;;;;;;;;;367846;146;865828;-66
2022/07/07 02:41:59;;;;;;;3.39;2.87;;;;;;;;;;359073;146;864960;-66
2022/07/07 02:43:01;;;;;;;3.63;2.95;;;;;;;;;;365009;147;859760;-66
2022/07/07 02:44:03;;;;;;;5.55;3.00;;;;;;;;;;374423;143;866708;-65
2022/07/07 02:45:04;;;;;;;3.79;2.82;;;;;;;;;;374198;143;865465;-65
2022/07/07 02:46:07;;;;;;;3.76;3.06;;;;;;;;;;374361;143;865343;-65
2022/07/07 02:47:09;;;;;;;3.91;2.99;;;;;;;;;;374501;143;857784;-65
2022/07/07 02:48:11;;;;;;;5.52;3.24;;;;;;;;;;374483;143;857895;-65
2022/07/07 02:49:13;;;;;;;5.54;3.24;;;;;;;;;;374428;143;864877;-65
2022/07/07 02:50:15;;;;;;;3.87;2.99;;;;;;;;;;374416;143;859732;-66
2022/07/07 02:51:17;;;;;;;6.76;3.61;;;;;;;;;;374485;143;857380;-66
2022/07/07 02:52:19;;;;;;;4.05;3.29;;;;;;;;;;374222;143;866854;-66
2022/07/07 02:53:20;;;;;;;5.11;3.33;;;;;;;;;;374270;143;858125;-65
2022/07/07 02:54:22;;;;;;;4.03;3.41;;;;;;;;;;374228;143;863345;-65
2022/07/07 02:55:24;;;;;;;4.24;3.24;;;;;;;;;;374453;143;866473;-66
2022/07/07 02:56:28;;;;;;;3.85;3.19;;;;;;;;;;366943;146;857422;-65
2022/07/07 02:57:29;;;;;;;5.79;3.32;;;;;;;;;;367575;146;859765;-65
2022/07/07 02:58:31;;;;;;;4.39;2.79;;;;;;;;;;367318;146;866610;-65
2022/07/07 02:59:33;;;;;;;5.27;3.15;;;;;;;;;;375547;143;858339;-65
2022/07/07 03:00:35;;;;;;;5.17;3.07;;;;;;;;;;374467;143;857922;-65
2022/07/07 03:01:37;;;;;;;4.29;3.02;;;;;;;;;;374476;140;859449;-65
2022/07/07 03:02:39;;;;;;;4.31;3.21;;;;;;;;;;374279;143;857513;-65
2022/07/07 03:03:40;;;;;;;5.77;3.27;;;;;;;;;;374291;143;857372;-65
2022/07/07 03:04:42;;;;;;;8.12;3.46;;;;;;;;;;374279;143;866426;-65
2022/07/07 03:05:44;;;;;;;4.37;3.04;;;;;;;;;;374244;143;867308;-65
2022/07/07 03:06:46;;;;;;;4.73;3.37;;;;;;;;;;374428;143;865117;-65
2022/07/07 03:07:48;;;;;;;5.59;2.92;;;;;;;;;;374485;143;857280;-65
2022/07/07 03:08:50;;;;;;;6.74;3.38;;;;;;;;;;374490;140;858792;-65
2022/07/07 03:09:51;;;;;;;6.71;3.21;;;;;;;;;;374472;143;857290;-65
2022/07/07 03:10:53;;;;;;;4.88;3.29;;;;;;;;;;374409;143;866789;-65
2022/07/07 03:11:55;;;;;;;4.24;3.16;;;;;;;;;;374427;143;864909;-65
2022/07/07 03:12:57;;;;;;;4.67;3.32;;;;;;;;;;374392;143;866004;-65
2022/07/07 03:13:58;;;;;;;5.21;2.89;;;;;;;;;;374483;143;859172;-66
2022/07/07 03:15:00;;;;;;;4.45;3.06;;;;;;;;;;374441;143;865382;-66
2022/07/07 03:16:02;;;;;;;8.56;3.73;;;;;;;;;;374265;143;857320;-66
2022/07/07 03:17:04;;;;;;;6.70;3.51;;;;;;;;;;374422;143;865761;-66
2022/07/07 03:18:05;;;;;;;4.83;3.03;;;;;;;;;;374500;143;859473;-66
2022/07/07 03:19:07;;;;;;;5.70;3.37;;;;;;;;;;374311;143;857272;-66
2022/07/07 03:20:10;;;;;;;3.14;2.88;;;;;;;;;;374442;143;857961;-66
2022/07/07 03:21:13;;;;;;;6.06;3.28;;;;;;;;;;374416;143;858203;-66
2022/07/07 03:22:14;;;;;;;7.20;3.59;;;;;;;;;;374496;143;857564;-66
2022/07/07 03:23:16;;;;;;;4.63;3.49;;;;;;;;;;374290;143;858461;-66
2022/07/07 03:24:18;;;;;;;5.23;3.49;;;;;;;;;;374352;143;857760;-66
2022/07/07 03:25:20;;;;;;;3.48;3.15;;;;;;;;;;374260;143;859671;-66
2022/07/07 03:26:23;;;;;;;8.51;3.41;;;;;;;;;;366998;146;857518;-66
2022/07/07 03:27:25;;;;;;;4.00;3.33;;;;;;;;;;364975;147;857927;-66
2022/07/07 03:28:27;;;;;;;6.31;3.50;;;;;;;;;;365446;147;865026;-66
2022/07/07 03:29:28;;;;;;;7.14;3.63;;;;;;;;;;374288;143;859771;-66
2022/07/07 03:30:30;;;;;;;4.81;3.53;;;;;;;;;;374430;143;865315;-66
2022/07/07 03:31:32;;;;;;;5.39;3.45;;;;;;;;;;374423;140;864968;-66
2022/07/07 03:32:34;;;;;;;6.78;3.43;;;;;;;;;;374276;143;858253;-66
2022/07/07 03:33:36;;;;;;;4.86;3.94;;;;;;;;;;374328;143;858710;-66
2022/07/07 03:34:37;;;;;;;6.81;4.76;;;;;;;;;;374755;143;864860;-66
2022/07/07 03:35:40;;;;;;;5.16;4.19;;;;;;;;;;374880;143;867289;-66
2022/07/07 03:36:42;;;;;;;10.17;3.96;;;;;;;;;;374330;141;864858;-66
2022/07/07 03:37:43;;;;;;;9.48;4.03;;;;;;;;;;374415;143;867298;-66
2022/07/07 03:38:45;;;;;;;6.20;3.66;;;;;;;;;;374495;143;857928;-66
2022/07/07 03:39:46;;;;;;;6.49;3.79;;;;;;;;;;374864;140;865761;-66
2022/07/07 03:40:48;;;;;;;5.91;3.81;;;;;;;;;;374866;143;864909;-66
2022/07/07 03:41:50;;;;;;;6.95;4.08;;;;;;;;;;374425;143;864990;-66
2022/07/07 03:42:52;;;;;;;4.65;4.18;;;;;;;;;;374232;143;866810;-66
2022/07/07 03:43:54;;;;;;;6.51;4.43;;;;;;;;;;374911;143;857203;-66
2022/07/07 03:44:56;;;;;;;5.87;4.69;;;;;;;;;;374964;143;856966;-66
2022/07/07 03:45:58;;;;;;;5.89;4.69;;;;;;;;;;374426;143;865877;-66
2022/07/07 03:47:00;;;;;;;7.12;4.77;;;;;;;;;;374473;143;858188;-66
2022/07/07 03:48:01;;;;;;;4.73;4.28;;;;;;;;;;374461;143;859990;-66
2022/07/07 03:49:03;;;;;;;6.62;4.03;;;;;;;;;;374422;143;867265;-67
2022/07/07 03:50:05;;;;;;;5.35;4.39;;;;;;;;;;374188;143;860313;-66
2022/07/07 03:51:07;;;;;;;6.80;4.20;;;;;;;;;;374418;143;866601;-66
2022/07/07 03:52:09;;;;;;;7.44;4.41;;;;;;;;;;374508;143;857805;-65
2022/07/07 03:53:10;;;;;;;7.98;4.50;;;;;;;;;;374435;143;864443;-65
2022/07/07 03:54:12;;;;;;;4.41;4.01;;;;;;;;;;374198;143;867243;-66
2022/07/07 03:55:14;;;;;;;7.02;4.59;;;;;;;;;;374293;143;859009;-65
2022/07/07 03:56:16;;;;;;;6.85;4.26;;;;;;;;;;374489;143;857861;-65
2022/07/07 03:57:18;;;;;;;4.86;4.46;;;;;;;;;;374464;143;858942;-65
2022/07/07 03:58:19;;;;;;;6.69;4.71;;;;;;;;;;374492;143;859298;-65
2022/07/07 03:59:21;;;;;;;4.63;4.22;;;;;;;;;;374437;143;865385;-66
2022/07/07 04:00:24;;;;;;;5.78;4.26;;;;;;;;;;374401;143;859933;-66
2022/07/07 04:01:26;;;;;;;5.82;4.53;;;;;;;;;;374468;143;858081;-66
2022/07/07 04:02:28;;;;;;;8.65;4.57;;;;;;;;;;374479;143;859627;-66
2022/07/07 04:03:30;;;;;;;7.61;4.61;;;;;;;;;;374495;143;857087;-65
2022/07/07 04:04:32;;;;;;;6.99;4.69;;;;;;;;;;374491;143;857281;-65
2022/07/07 04:05:34;;;;;;;5.43;4.40;;;;;;;;;;374264;143;857749;-65
2022/07/07 04:06:35;;;;;;;5.87;4.64;;;;;;;;;;374471;140;857806;-66
2022/07/07 04:07:37;;;;;;;5.05;4.56;;;;;;;;;;374527;143;858562;-66
2022/07/07 04:08:39;;;;;;;5.93;4.64;;;;;;;;;;374462;141;866121;-65
2022/07/07 04:09:40;;;;;;;7.86;4.75;;;;;;;;;;374443;143;866010;-65
2022/07/07 04:10:42;;;;;;;8.39;4.59;;;;;;;;;;374449;143;865281;-65
2022/07/07 04:11:44;;;;;;;7.69;4.58;;;;;;;;;;374440;143;865746;-64
2022/07/07 04:12:46;;;;;;;6.27;4.54;;;;;;;;;;374457;140;859020;-63
2022/07/07 04:13:48;;;;;;;6.49;5.09;;;;;;;;;;374431;143;864910;-63
2022/07/07 04:14:49;;;;;;;5.90;4.44;;;;;;;;;;374481;143;858241;-62
2022/07/07 04:15:51;;;;;;;8.89;4.70;;;;;;;;;;374452;143;864503;-62
2022/07/07 04:16:53;;;;;;;7.21;4.60;;;;;;;;;;374416;143;865576;-62
2022/07/07 04:17:55;;;;;;;6.21;4.28;;;;;;;;;;374516;143;856784;-63
2022/07/07 04:18:57;;;;;;;5.16;4.66;;;;;;;;;;367911;146;857886;-63
2022/07/07 04:19:59;;;;;;;5.97;4.92;;;;;;;;;;359434;146;857387;-63
2022/07/07 04:21:01;;;;;;;6.89;4.67;;;;;;;;;;361324;146;859042;-63
2022/07/07 04:22:03;;;;;;;6.19;4.82;;;;;;;;;;358319;147;859790;-63
2022/07/07 04:23:05;;;;;;;9.88;4.78;;;;;;;;;;374435;143;859212;-62
2022/07/07 04:24:07;;;;;;;7.09;4.41;;;;;;;;;;374479;143;859067;-63
2022/07/07 04:25:10;;;;;;;6.46;4.46;;;;;;;;;;374527;143;857463;-63
2022/07/07 04:29:46;;;;;;;5.15;4.62;;;;;;;;;;374367;143;857021;-63
2022/07/07 04:30:48;;;;;;;8.05;4.07;;;;;;;;;;374333;143;858423;-63
2022/07/07 04:31:50;;;;;;;8.92;4.66;;;;;;;;;;374462;143;860350;-63
2022/07/07 04:32:52;;;;;;;6.28;4.61;;;;;;;;;;367589;143;857443;-63
2022/07/07 04:33:54;;;;;;;6.08;4.08;;;;;;;;;;376233;143;864465;-63
2022/07/07 04:34:56;;;;;;;5.12;4.42;;;;;;;;;;367561;145;859686;-63
2022/07/07 04:35:58;;;;;;;8.49;4.20;;;;;;;;;;367603;143;857808;-63
2022/07/07 04:37:00;;;;;;;4.95;4.05;;;;;;;;;;374502;143;866361;-63
2022/07/07 04:38:02;;;;;;;7.09;4.31;;;;;;;;;;382149;140;860613;-63
2022/07/07 04:39:03;;;;;;;5.81;4.59;;;;;;;;;;384080;140;865106;-63
2022/07/07 04:40:06;;;;;;;5.39;4.13;;;;;;;;;;384111;140;860036;-63
2022/07/07 04:41:08;;;;;;;9.65;4.26;;;;;;;;;;384012;140;856902;-63
2022/07/07 04:42:09;;;;;;;11.84;4.17;;;;;;;;;;384124;140;856827;-63
2022/07/07 04:43:12;;;;;;;7.92;4.26;;;;;;;;;;384055;140;859402;-63
2022/07/07 04:44:13;;;;;;;7.16;3.79;;;;;;;;;;384074;140;860338;-63
2022/07/07 04:45:15;;;;;;;4.81;3.99;;;;;;;;;;384108;140;859129;-63
2022/07/07 04:46:19;;;;;;;7.16;3.91;;;;;;;;;;383637;140;861419;-63
2022/07/07 04:47:21;;;;;;;6.22;3.89;;;;;;;;;;384063;140;865122;-63
2022/07/07 04:48:23;;;;;;;8.27;3.91;;;;;;;;;;384124;140;860224;-63
2022/07/07 04:49:25;;;;;;;6.41;4.24;;;;;;;;;;384094;140;864509;-63
2022/07/07 04:50:27;;;;;;;8.99;4.69;;;;;;;;;;383965;140;865351;-63
2022/07/07 04:51:29;;;;;;;11.15;4.23;;;;;;;;;;384240;140;858209;-62
2022/07/07 04:52:31;;;;;;;6.97;4.15;;;;;;;;;;384258;140;857803;-63
2022/07/07 04:53:32;;;;;;;5.71;3.96;;;;;;;;;;376931;142;857017;-64
2022/07/07 04:54:34;;;;;;;8.82;4.50;;;;;;;;;;376901;140;865527;-64
2022/07/07 04:55:36;;;;;;;6.21;4.49;;;;;;;;;;383779;140;866103;-63
2022/07/07 04:56:38;;;;;;;7.69;4.06;;;;;;;;;;384142;140;857695;-65
2022/07/07 04:57:40;;;;;;;5.89;3.88;;;;;;;;;;384093;140;857482;-64
2022/07/07 04:58:42;;;;;;;4.71;3.96;;;;;;;;;;384026;140;864910;-63
2022/07/07 04:59:43;;;;;;;4.76;3.95;;;;;;;;;;384056;140;864569;-64
2022/07/07 05:00:46;;;;;;;6.11;3.93;;;;;;;;;;384166;140;864409;-64
2022/07/07 05:01:47;;;;;;;5.75;3.80;;;;;;;;;;384134;140;858277;-64
2022/07/07 05:02:50;;;;;;;5.96;4.05;;;;;;;;;;383947;140;856869;-63
2022/07/07 05:03:56;;;;;;;6.83;4.67;;;;;;;;;;383875;140;864379;-64
2022/07/07 05:04:59;;;;;;;6.21;3.95;;;;;;;;;;383855;140;864857;-65
2022/07/07 05:06:01;;;;;;;7.87;4.18;;;;;;;;;;384143;140;857518;-64
2022/07/07 05:07:05;;;;;;;8.41;4.51;;;;;;;;;;384157;140;864648;-64
2022/07/07 05:08:07;;;;;;;5.67;4.03;;;;;;;;;;384093;140;857989;-64
2022/07/07 05:09:09;;;;;;;4.42;3.80;;;;;;;;;;384072;140;859041;-64
2022/07/07 05:10:12;;;;;;;5.59;3.93;;;;;;;;;;383996;140;864555;-64
2022/07/07 05:11:13;;;;;;;6.26;4.06;;;;;;;;;;384068;140;857824;-65
2022/07/07 05:12:15;;;;;;;6.08;4.64;;;;;;;;;;384061;140;857912;-62
2022/07/07 05:13:17;;;;;;;5.31;3.86;;;;;;;;;;384077;140;859534;-63
2022/07/07 05:14:19;;;;;;;6.11;4.51;;;;;;;;;;384073;140;865010;-63
2022/07/07 05:15:20;;;;;;;6.42;4.04;;;;;;;;;;384034;140;864746;-63
2022/07/07 05:16:23;;;;;;;4.85;3.79;;;;;;;;;;384021;140;864983;-63
2022/07/07 05:17:25;;;;;;;6.85;3.73;;;;;;;;;;383934;140;856900;-63
2022/07/07 05:18:27;;;;;;;8.99;3.78;;;;;;;;;;384144;140;857404;-63
2022/07/07 05:19:29;;;;;;;6.31;4.26;;;;;;;;;;384083;140;857525;-63
2022/07/07 05:20:32;;;;;;;5.81;4.18;;;;;;;;;;383981;140;860091;-63
2022/07/07 05:21:34;;;;;;;6.92;3.85;;;;;;;;;;384058;140;859123;-63
2022/07/07 05:22:35;;;;;;;7.81;4.17;;;;;;;;;;384025;140;859663;-63
2022/07/07 05:23:37;;;;;;;7.14;3.96;;;;;;;;;;384028;140;866243;-63
2022/07/07 05:24:39;;;;;;;5.72;4.04;;;;;;;;;;384045;140;864632;-63
2022/07/07 05:25:41;;;;;;;7.51;4.09;;;;;;;;;;384153;140;857268;-63
2022/07/07 05:26:43;;;;;;;8.14;4.35;;;;;;;;;;384146;140;858296;-63
2022/07/07 05:27:45;;;;;;;4.75;3.61;;;;;;;;;;383864;140;857442;-63
2022/07/07 05:28:47;;;;;;;5.51;3.66;;;;;;;;;;383948;140;858659;-63
2022/07/07 05:29:48;;;;;;;6.41;4.16;;;;;;;;;;384012;140;864535;-63
2022/07/07 05:30:50;;;;;;;6.03;3.80;;;;;;;;;;384089;140;865074;-63
2022/07/07 05:31:52;;;;;;;7.31;4.07;;;;;;;;;;384146;140;856801;-63
2022/07/07 05:32:54;;;;;;;5.89;4.15;;;;;;;;;;383843;140;857016;-62
2022/07/07 05:33:56;;;;;;;6.98;4.14;;;;;;;;;;384144;140;857469;-62
2022/07/07 05:34:58;;;;;;;5.01;3.88;;;;;;;;;;384012;140;865774;-62
2022/07/07 05:36:00;;;;;;;6.13;3.78;;;;;;;;;;384029;140;865013;-62
2022/07/07 05:37:01;;;;;;;4.92;3.86;;;;;;;;;;384093;140;858354;-62
2022/07/07 05:38:03;;;;;;;8.59;4.26;;;;;;;;;;384008;140;864553;-62
2022/07/07 05:39:06;;;;;;;7.11;3.75;;;;;;;;;;384132;140;857936;-63
2022/07/07 05:40:09;;;;;;;6.40;4.09;;;;;;;;;;384064;140;857264;-63
2022/07/07 05:41:11;;;;;;;6.89;4.06;;;;;;;;;;384276;140;858333;-62
2022/07/07 05:42:12;;;;;;;5.37;4.08;;;;;;;;;;384234;140;857640;-63
2022/07/07 05:43:14;;;;;;;7.81;3.96;;;;;;;;;;384132;140;857227;-63
2022/07/07 05:44:16;;;;;;;5.38;3.72;;;;;;;;;;383756;140;866339;-63
2022/07/07 05:45:19;;;;;;;9.07;4.27;;;;;;;;;;383746;140;859151;-63
2022/07/07 05:46:21;;;;;;;6.02;4.40;;;;;;;;;;384317;140;856921;-63
2022/07/07 05:47:23;;;;;;;5.81;3.93;;;;;;;;;;384260;140;857019;-62
2022/07/07 05:48:26;;;;;;;6.01;3.77;;;;;;;;;;384053;140;865073;-63
2022/07/07 05:49:28;;;;;;;6.73;3.88;;;;;;;;;;384036;140;858618;-63
2022/07/07 05:50:31;;;;;;;5.27;3.58;;;;;;;;;;384069;140;856974;-63
2022/07/07 05:51:33;;;;;;;5.01;3.87;;;;;;;;;;384101;140;856685;-64
2022/07/07 05:52:35;;;;;;;6.79;3.99;;;;;;;;;;376833;142;860019;-63
2022/07/07 05:53:37;;;;;;;5.79;4.03;;;;;;;;;;376934;140;857046;-63
2022/07/07 05:54:39;;;;;;;6.63;4.02;;;;;;;;;;384277;140;857404;-63
2022/07/07 05:55:42;;;;;;;9.17;4.19;;;;;;;;;;384191;140;857083;-64
2022/07/07 05:56:44;;;;;;;7.55;4.00;;;;;;;;;;383978;140;865413;-63
2022/07/07 05:57:46;;;;;;;5.07;4.26;;;;;;;;;;384130;140;856811;-64
2022/07/07 05:58:48;;;;;;;9.95;4.04;;;;;;;;;;376701;142;856884;-64
2022/07/07 05:59:50;;;;;;;9.25;3.95;;;;;;;;;;376894;140;865247;-64
2022/07/07 06:00:52;;;;;;;5.03;3.99;;;;;;;;;;384116;140;856624;-64
2022/07/07 06:01:55;;;;;;;10.43;4.02;;;;;;;;;;384137;140;859099;-64
2022/07/07 06:02:57;;;;;;;5.97;3.67;;;;;;;;;;384028;140;857777;-64
2022/07/07 06:03:58;;;;;;;5.17;4.04;;;;;;;;;;384174;140;856795;-64
2022/07/07 06:05:00;;;;;;;7.59;3.55;;;;;;;;;;384156;140;858256;-64
2022/07/07 06:06:03;;;;;;;5.05;3.91;;;;;;;;;;384081;140;866179;-64
2022/07/07 06:07:04;;;;;;;5.91;4.15;;;;;;;;;;383882;140;857717;-64
2022/07/07 06:08:06;;;;;;;6.22;3.96;;;;;;;;;;383833;140;857111;-64
2022/07/07 06:09:08;;;;;;;6.92;3.87;;;;;;;;;;384143;140;857308;-63
2022/07/07 06:10:11;;;;;;;8.02;3.83;;;;;;;;;;384015;140;857226;-63
2022/07/07 06:11:13;;;;;;;6.35;3.64;;;;;;;;;;384114;140;859513;-63